createdAt,value
2017-01-13T00:00:23.981Z,0
2017-01-13T00:01:24.053Z,0
2017-01-13T00:02:24.838Z,0
2017-01-13T00:03:24.862Z,0
2017-01-13T00:04:24.491Z,0
2017-01-13T00:05:24.131Z,0
2017-01-13T00:06:24.943Z,0
2017-01-13T00:07:24.577Z,0
2017-01-13T00:08:25.002Z,0
2017-01-13T00:09:25.335Z,0
2017-01-13T00:10:24.660Z,0
2017-01-13T00:11:24.690Z,0
2017-01-13T00:12:25.105Z,0
2017-01-13T00:13:24.738Z,0
2017-01-13T00:14:25.168Z,0
2017-01-13T00:15:24.399Z,0
2017-01-13T00:16:25.216Z,0
2017-01-13T00:17:24.449Z,0
2017-01-13T00:18:25.678Z,0
2017-01-13T00:19:25.291Z,0
2017-01-13T00:20:24.530Z,0
2017-01-13T00:21:25.348Z,0
2017-01-13T00:22:25.380Z,0
2017-01-13T00:23:25.001Z,0
2017-01-13T00:24:25.034Z,0
2017-01-13T00:25:25.054Z,0
2017-01-13T00:26:25.091Z,0
2017-01-13T00:27:25.112Z,0
2017-01-13T00:28:25.537Z,0
2017-01-13T00:29:24.774Z,0
2017-01-13T00:30:25.998Z,0
2017-01-13T00:31:26.031Z,0
2017-01-13T00:32:25.640Z,0
2017-01-13T00:33:24.880Z,0
2017-01-13T00:34:25.693Z,0
2017-01-13T00:35:24.938Z,0
2017-01-13T00:36:25.356Z,0
2017-01-13T00:37:25.387Z,0
2017-01-13T00:38:25.808Z,0
2017-01-13T00:39:25.837Z,0
2017-01-13T00:40:25.863Z,0
2017-01-13T00:41:25.886Z,0
2017-01-13T00:42:25.515Z,0
2017-01-13T00:43:25.155Z,0
2017-01-13T00:44:25.564Z,0
2017-01-13T00:45:25.605Z,0
2017-01-13T00:46:26.022Z,0
2017-01-13T00:47:26.050Z,0
2017-01-13T00:48:26.072Z,0
2017-01-13T00:49:26.108Z,0
2017-01-13T00:50:26.521Z,0
2017-01-13T00:51:26.157Z,0
2017-01-13T00:52:25.786Z,0
2017-01-13T00:53:25.815Z,0
2017-01-13T00:54:25.835Z,0
2017-01-13T00:55:25.860Z,0
2017-01-13T00:56:26.281Z,0
2017-01-13T00:57:26.713Z,0
2017-01-13T00:58:26.339Z,0
2017-01-13T00:59:26.763Z,0
2017-01-13T01:00:26.404Z,0
2017-01-13T01:01:25.632Z,0
2017-01-13T01:02:26.457Z,0
2017-01-13T01:03:26.478Z,0
2017-01-13T01:04:26.107Z,0
2017-01-13T01:05:25.731Z,0
2017-01-13T01:06:26.552Z,0
2017-01-13T01:07:25.797Z,0
2017-01-13T01:08:26.214Z,0
2017-01-13T01:09:26.262Z,0
2017-01-13T01:10:26.263Z,0
2017-01-13T01:11:26.292Z,0
2017-01-13T01:12:27.117Z,0
2017-01-13T01:13:26.345Z,0
2017-01-13T01:14:26.374Z,0
2017-01-13T01:15:26.391Z,0
2017-01-13T01:16:27.220Z,0
2017-01-13T01:17:26.848Z,0
2017-01-13T01:18:26.865Z,0
2017-01-13T01:19:27.298Z,0
2017-01-13T01:20:26.522Z,0
2017-01-13T01:21:26.567Z,0
2017-01-13T01:22:26.583Z,0
2017-01-13T01:23:26.609Z,0
2017-01-13T01:24:27.437Z,0
2017-01-13T01:25:26.663Z,0
2017-01-13T01:26:27.083Z,0
2017-01-13T01:27:27.119Z,0
2017-01-13T01:28:26.340Z,0
2017-01-13T01:29:26.361Z,0
2017-01-13T01:30:26.793Z,0
2017-01-13T01:31:26.830Z,0
2017-01-13T01:32:26.851Z,0
2017-01-13T01:33:27.272Z,0
2017-01-13T01:34:27.291Z,0
2017-01-13T01:35:27.318Z,0
2017-01-13T01:36:26.558Z,0
2017-01-13T01:37:27.375Z,0
2017-01-13T01:38:27.408Z,0
2017-01-13T01:39:27.028Z,0
2017-01-13T01:40:26.661Z,0
2017-01-13T01:41:27.091Z,0
2017-01-13T01:42:27.510Z,0
2017-01-13T01:43:27.927Z,0
2017-01-13T01:44:27.160Z,0
2017-01-13T01:45:27.584Z,0
2017-01-13T01:46:27.221Z,0
2017-01-13T01:47:27.274Z,0
2017-01-13T01:48:27.659Z,0
2017-01-13T01:49:26.904Z,0
2017-01-13T01:50:27.732Z,0
2017-01-13T01:51:28.137Z,0
2017-01-13T01:52:28.174Z,0
2017-01-13T01:53:27.398Z,0
2017-01-13T01:54:27.827Z,0
2017-01-13T01:55:27.856Z,0
2017-01-13T01:56:27.877Z,0
2017-01-13T01:57:27.517Z,0
2017-01-13T01:58:27.535Z,0
2017-01-13T01:59:27.559Z,0
2017-01-13T02:00:27.984Z,0
2017-01-13T02:01:28.010Z,0
2017-01-13T02:02:27.637Z,0
2017-01-13T02:03:27.653Z,0
2017-01-13T02:04:27.694Z,0
2017-01-13T02:05:27.719Z,0
2017-01-13T02:06:28.140Z,0
2017-01-13T02:07:27.377Z,0
2017-01-13T02:08:28.606Z,0
2017-01-13T02:09:28.615Z,0
2017-01-13T02:10:27.855Z,0
2017-01-13T02:11:28.267Z,0
2017-01-13T02:12:27.521Z,0
2017-01-13T02:13:27.928Z,0
2017-01-13T02:14:28.350Z,0
2017-01-13T02:15:27.986Z,0
2017-01-13T02:16:28.403Z,0
2017-01-13T02:17:28.435Z,0
2017-01-13T02:18:28.857Z,0
2017-01-13T02:19:28.877Z,0
2017-01-13T02:20:28.118Z,0
2017-01-13T02:21:28.139Z,0
2017-01-13T02:22:28.564Z,0
2017-01-13T02:23:28.592Z,0
2017-01-13T02:24:27.829Z,0
2017-01-13T02:25:28.638Z,0
2017-01-13T02:26:28.667Z,0
2017-01-13T02:27:28.300Z,0
2017-01-13T02:28:28.719Z,0
2017-01-13T02:29:28.348Z,0
2017-01-13T02:30:29.173Z,0
2017-01-13T02:31:28.798Z,0
2017-01-13T02:32:29.219Z,0
2017-01-13T02:33:28.856Z,0
2017-01-13T02:34:29.293Z,0
2017-01-13T02:35:28.909Z,0
2017-01-13T02:36:29.325Z,0
2017-01-13T02:37:28.558Z,0
2017-01-13T02:38:28.587Z,0
2017-01-13T02:39:28.608Z,0
2017-01-13T02:40:28.637Z,0
2017-01-13T02:41:28.266Z,0
2017-01-13T02:42:29.090Z,0
2017-01-13T02:43:28.723Z,0
2017-01-13T02:44:29.139Z,0
2017-01-13T02:45:29.564Z,0
2017-01-13T02:46:28.796Z,0
2017-01-13T02:47:28.430Z,0
2017-01-13T02:48:28.846Z,0
2017-01-13T02:49:28.875Z,0
2017-01-13T02:50:28.495Z,0
2017-01-13T02:51:29.729Z,0
2017-01-13T02:52:29.345Z,0
2017-01-13T02:53:29.370Z,0
2017-01-13T02:54:29.402Z,0
2017-01-13T02:55:28.623Z,0
2017-01-13T02:56:29.451Z,0
2017-01-13T02:57:29.881Z,0
2017-01-13T02:58:29.507Z,0
2017-01-13T02:59:29.138Z,0
2017-01-13T03:00:29.155Z,0
2017-01-13T03:01:29.600Z,0
2017-01-13T03:02:29.205Z,0
2017-01-13T03:03:29.245Z,0
2017-01-13T03:04:29.261Z,0
2017-01-13T03:05:29.679Z,0
2017-01-13T03:06:29.720Z,0
2017-01-13T03:07:29.400Z,0
2017-01-13T03:08:29.793Z,0
2017-01-13T03:09:29.790Z,0
2017-01-13T03:10:30.206Z,0
2017-01-13T03:11:29.843Z,0
2017-01-13T03:12:29.489Z,0
2017-01-13T03:13:29.904Z,0
2017-01-13T03:14:29.925Z,0
2017-01-13T03:15:30.350Z,0
2017-01-13T03:16:29.575Z,0
2017-01-13T03:17:30.387Z,0
2017-01-13T03:18:29.632Z,0
2017-01-13T03:19:29.649Z,0
2017-01-13T03:20:30.077Z,0
2017-01-13T03:21:29.306Z,0
2017-01-13T03:22:30.123Z,0
2017-01-13T03:23:29.356Z,0
2017-01-13T03:24:30.567Z,0
2017-01-13T03:25:29.809Z,0
2017-01-13T03:26:30.229Z,0
2017-01-13T03:27:30.254Z,0
2017-01-13T03:28:30.671Z,0
2017-01-13T03:29:30.307Z,0
2017-01-13T03:30:30.333Z,0
2017-01-13T03:31:29.561Z,0
2017-01-13T03:32:30.386Z,0
2017-01-13T03:33:30.019Z,0
2017-01-13T03:34:30.044Z,0
2017-01-13T03:35:30.481Z,0
2017-01-13T03:36:30.493Z,0
2017-01-13T03:37:30.122Z,0
2017-01-13T03:38:30.530Z,0
2017-01-13T03:39:30.179Z,0
2017-01-13T03:40:30.192Z,0
2017-01-13T03:41:29.828Z,0
2017-01-13T03:42:30.657Z,0
2017-01-13T03:43:30.266Z,0
2017-01-13T03:44:31.095Z,0
2017-01-13T03:45:30.323Z,0
2017-01-13T03:46:30.344Z,0
2017-01-13T03:47:30.381Z,0
2017-01-13T03:48:31.190Z,0
2017-01-13T03:49:30.423Z,0
2017-01-13T03:50:30.059Z,0
2017-01-13T03:51:31.270Z,0
2017-01-13T03:52:30.905Z,0
2017-01-13T03:53:31.325Z,0
2017-01-13T03:54:30.166Z,0
2017-01-13T03:55:30.570Z,0
2017-01-13T03:56:30.603Z,0
2017-01-13T03:57:31.428Z,0
2017-01-13T03:58:30.265Z,0
2017-01-13T03:59:31.077Z,0
2017-01-13T04:00:30.710Z,0
2017-01-13T04:01:31.123Z,0
2017-01-13T04:02:30.755Z,0
2017-01-13T04:03:30.388Z,0
2017-01-13T04:04:30.821Z,0
2017-01-13T04:05:31.632Z,0
2017-01-13T04:06:31.658Z,0
2017-01-13T04:07:31.287Z,0
2017-01-13T04:08:31.712Z,0
2017-01-13T04:09:31.736Z,0
2017-01-13T04:10:30.966Z,0
2017-01-13T04:11:31.388Z,0
2017-01-13T04:12:31.014Z,0
2017-01-13T04:13:31.440Z,0
2017-01-13T04:14:31.463Z,0
2017-01-13T04:15:30.701Z,0
2017-01-13T04:16:31.522Z,0
2017-01-13T04:17:31.547Z,0
2017-01-13T04:18:30.771Z,0
2017-01-13T04:19:30.800Z,0
2017-01-13T04:20:31.224Z,0
2017-01-13T04:21:30.856Z,0
2017-01-13T04:22:31.278Z,0
2017-01-13T04:23:30.907Z,0
2017-01-13T04:24:31.323Z,0
2017-01-13T04:25:32.152Z,0
2017-01-13T04:26:32.164Z,0
2017-01-13T04:27:31.009Z,0
2017-01-13T04:28:31.818Z,0
2017-01-13T04:29:31.455Z,0
2017-01-13T04:30:31.879Z,0
2017-01-13T04:31:31.508Z,0
2017-01-13T04:32:32.325Z,0
2017-01-13T04:33:31.951Z,0
2017-01-13T04:34:31.978Z,0
2017-01-13T04:35:32.399Z,0
2017-01-13T04:36:31.240Z,0
2017-01-13T04:37:31.280Z,0
2017-01-13T04:38:32.081Z,0
2017-01-13T04:39:31.714Z,0
2017-01-13T04:40:31.335Z,0
2017-01-13T04:41:32.163Z,0
2017-01-13T04:42:32.176Z,0
2017-01-13T04:43:32.209Z,0
2017-01-13T04:44:32.233Z,0
2017-01-13T04:45:31.890Z,0
2017-01-13T04:46:31.503Z,0
2017-01-13T04:47:31.523Z,0
2017-01-13T04:48:31.544Z,0
2017-01-13T04:49:31.969Z,0
2017-01-13T04:50:32.386Z,0
2017-01-13T04:51:32.807Z,0
2017-01-13T04:52:31.647Z,0
2017-01-13T04:53:32.468Z,0
2017-01-13T04:54:31.697Z,0
2017-01-13T04:55:32.114Z,0
2017-01-13T04:56:32.946Z,0
2017-01-13T04:57:31.779Z,0
2017-01-13T04:58:32.587Z,0
2017-01-13T04:59:33.008Z,0
2017-01-13T05:00:32.248Z,0
2017-01-13T05:01:33.073Z,0
2017-01-13T05:02:32.298Z,0
2017-01-13T05:03:32.750Z,0
2017-01-13T05:04:32.355Z,0
2017-01-13T05:05:32.371Z,0
2017-01-13T05:06:32.396Z,0
2017-01-13T05:07:32.824Z,0
2017-01-13T05:08:33.265Z,0
2017-01-13T05:09:32.074Z,0
2017-01-13T05:10:32.910Z,0
2017-01-13T05:11:32.551Z,0
2017-01-13T05:12:32.547Z,0
2017-01-13T05:13:32.978Z,0
2017-01-13T05:14:33.005Z,0
2017-01-13T05:15:33.022Z,0
2017-01-13T05:16:33.450Z,0
2017-01-13T05:17:32.287Z,0
2017-01-13T05:18:32.711Z,0
2017-01-13T05:19:32.332Z,0
2017-01-13T05:20:32.756Z,0
2017-01-13T05:21:33.194Z,0
2017-01-13T05:22:32.818Z,0
2017-01-13T05:23:33.631Z,0
2017-01-13T05:24:33.648Z,0
2017-01-13T05:25:33.288Z,0
2017-01-13T05:26:32.516Z,0
2017-01-13T05:27:32.545Z,0
2017-01-13T05:28:33.358Z,0
2017-01-13T05:29:32.983Z,0
2017-01-13T05:30:33.416Z,0
2017-01-13T05:31:33.822Z,0
2017-01-13T05:32:33.461Z,0
2017-01-13T05:33:32.687Z,0
2017-01-13T05:34:33.514Z,0
2017-01-13T05:35:33.163Z,0
2017-01-13T05:36:33.172Z,0
2017-01-13T05:37:33.599Z,0
2017-01-13T05:38:33.217Z,0
2017-01-13T05:39:32.853Z,0
2017-01-13T05:40:33.666Z,0
2017-01-13T05:41:33.691Z,0
2017-01-13T05:42:33.711Z,0
2017-01-13T05:43:32.956Z,0
2017-01-13T05:44:33.375Z,0
2017-01-13T05:45:33.398Z,0
2017-01-13T05:46:33.822Z,0
2017-01-13T05:47:33.443Z,0
2017-01-13T05:48:34.273Z,0
2017-01-13T05:49:34.300Z,0
2017-01-13T05:50:33.553Z,0
2017-01-13T05:51:33.161Z,0
2017-01-13T05:52:33.974Z,0
2017-01-13T05:53:33.599Z,0
2017-01-13T05:54:33.626Z,0
2017-01-13T05:55:34.053Z,0
2017-01-13T05:56:34.070Z,0
2017-01-13T05:57:33.702Z,0
2017-01-13T05:58:34.523Z,0
2017-01-13T05:59:34.565Z,0
2017-01-13T06:00:33.780Z,0
2017-01-13T06:01:34.209Z,0
2017-01-13T06:02:33.838Z,0
2017-01-13T06:03:33.866Z,0
2017-01-13T06:04:34.291Z,0
2017-01-13T06:05:33.908Z,0
2017-01-13T06:06:34.333Z,0
2017-01-13T06:07:34.750Z,0
2017-01-13T06:08:34.386Z,0
2017-01-13T06:09:34.415Z,0
2017-01-13T06:10:34.459Z,0
2017-01-13T06:11:34.465Z,0
2017-01-13T06:12:34.093Z,0
2017-01-13T06:13:33.722Z,0
2017-01-13T06:14:33.747Z,0
2017-01-13T06:15:34.968Z,0
2017-01-13T06:16:34.589Z,0
2017-01-13T06:17:33.830Z,0
2017-01-13T06:18:34.642Z,0
2017-01-13T06:19:34.283Z,0
2017-01-13T06:20:33.897Z,0
2017-01-13T06:21:34.328Z,0
2017-01-13T06:22:33.958Z,0
2017-01-13T06:23:34.377Z,0
2017-01-13T06:24:34.803Z,0
2017-01-13T06:25:34.827Z,0
2017-01-13T06:26:34.447Z,0
2017-01-13T06:27:34.480Z,0
2017-01-13T06:28:34.901Z,0
2017-01-13T06:29:34.541Z,0
2017-01-13T06:30:34.562Z,0
2017-01-13T06:31:34.579Z,0
2017-01-13T06:32:35.003Z,0
2017-01-13T06:33:35.032Z,0
2017-01-13T06:34:35.065Z,0
2017-01-13T06:35:35.088Z,0
2017-01-13T06:36:34.706Z,0
2017-01-13T06:37:34.730Z,0
2017-01-13T06:38:35.183Z,0
2017-01-13T06:39:34.396Z,0
2017-01-13T06:40:34.427Z,0
2017-01-13T06:41:34.838Z,0
2017-01-13T06:42:34.870Z,0
2017-01-13T06:43:35.295Z,0
2017-01-13T06:44:35.316Z,0
2017-01-13T06:45:35.356Z,0
2017-01-13T06:46:35.392Z,0
2017-01-13T06:47:35.001Z,0
2017-01-13T06:48:35.418Z,0
2017-01-13T06:49:35.450Z,0
2017-01-13T06:50:35.106Z,0
2017-01-13T06:51:35.096Z,0
2017-01-13T06:52:35.926Z,0
2017-01-13T06:53:35.954Z,0
2017-01-13T06:54:35.579Z,0
2017-01-13T06:55:35.208Z,0
2017-01-13T06:56:35.240Z,0
2017-01-13T06:57:34.873Z,0
2017-01-13T06:58:35.290Z,0
2017-01-13T06:59:35.706Z,0
2017-01-13T07:00:35.416Z,0
2017-01-13T07:01:35.368Z,0
2017-01-13T07:02:35.405Z,0
2017-01-13T07:03:35.822Z,4
2017-01-13T07:04:35.839Z,4
2017-01-13T07:05:35.079Z,4
2017-01-13T07:06:35.104Z,4
2017-01-13T07:07:35.125Z,4
2017-01-13T07:08:35.545Z,0
2017-01-13T07:09:35.590Z,4
2017-01-13T07:10:35.602Z,4
2017-01-13T07:11:35.640Z,8
2017-01-13T07:12:35.659Z,8
2017-01-13T07:13:35.680Z,8
2017-01-13T07:14:35.709Z,12
2017-01-13T07:15:35.735Z,12
2017-01-13T07:16:35.759Z,12
2017-01-13T07:17:36.184Z,12
2017-01-13T07:18:36.202Z,16
2017-01-13T07:19:36.238Z,16
2017-01-13T07:20:36.660Z,20
2017-01-13T07:21:36.307Z,20
2017-01-13T07:22:35.927Z,20
2017-01-13T07:23:35.944Z,20
2017-01-13T07:24:35.569Z,20
2017-01-13T07:25:35.602Z,24
2017-01-13T07:26:36.027Z,24
2017-01-13T07:27:35.656Z,28
2017-01-13T07:28:36.076Z,32
2017-01-13T07:29:36.492Z,32
2017-01-13T07:30:36.921Z,28
2017-01-13T07:31:36.151Z,32
2017-01-13T07:32:35.787Z,40
2017-01-13T07:33:36.600Z,44
2017-01-13T07:34:36.641Z,44
2017-01-13T07:35:36.258Z,52
2017-01-13T07:36:36.290Z,52
2017-01-13T07:37:36.707Z,60
2017-01-13T07:38:36.345Z,60
2017-01-13T07:39:36.765Z,68
2017-01-13T07:40:36.782Z,72
2017-01-13T07:41:36.422Z,72
2017-01-13T07:42:36.443Z,88
2017-01-13T07:43:36.068Z,92
2017-01-13T07:44:36.501Z,84
2017-01-13T07:45:36.913Z,104
2017-01-13T07:46:36.551Z,108
2017-01-13T07:47:37.371Z,100
2017-01-13T07:48:37.000Z,108
2017-01-13T07:49:37.028Z,112
2017-01-13T07:50:36.265Z,116
2017-01-13T07:51:37.074Z,128
2017-01-13T07:52:36.307Z,144
2017-01-13T07:53:37.132Z,148
2017-01-13T07:54:36.764Z,156
2017-01-13T07:55:37.177Z,168
2017-01-13T07:56:37.206Z,176
2017-01-13T07:57:37.641Z,188
2017-01-13T07:58:36.867Z,200
2017-01-13T07:59:36.900Z,216
2017-01-13T08:00:37.312Z,220
2017-01-13T08:01:36.944Z,232
2017-01-13T08:02:37.770Z,232
2017-01-13T08:03:36.600Z,248
2017-01-13T08:04:37.025Z,272
2017-01-13T08:05:37.848Z,280
2017-01-13T08:06:37.463Z,292
2017-01-13T08:07:37.505Z,300
2017-01-13T08:08:37.528Z,324
2017-01-13T08:09:36.761Z,340
2017-01-13T08:10:37.177Z,356
2017-01-13T08:11:37.598Z,348
2017-01-13T08:12:37.631Z,352
2017-01-13T08:13:37.255Z,392
2017-01-13T08:14:37.685Z,408
2017-01-13T08:15:38.113Z,388
2017-01-13T08:16:37.734Z,424
2017-01-13T08:17:37.762Z,432
2017-01-13T08:18:37.016Z,448
2017-01-13T08:19:37.440Z,460
2017-01-13T08:20:37.049Z,476
2017-01-13T08:21:37.074Z,484
2017-01-13T08:22:37.892Z,504
2017-01-13T08:23:37.920Z,520
2017-01-13T08:24:37.948Z,532
2017-01-13T08:25:38.368Z,492
2017-01-13T08:26:37.202Z,524
2017-01-13T08:27:38.026Z,544
2017-01-13T08:28:38.055Z,564
2017-01-13T08:29:37.684Z,580
2017-01-13T08:30:37.705Z,596
2017-01-13T08:31:37.741Z,608
2017-01-13T08:32:38.156Z,612
2017-01-13T08:33:38.579Z,632
2017-01-13T08:34:37.811Z,644
2017-01-13T08:35:37.445Z,668
2017-01-13T08:36:38.253Z,680
2017-01-13T08:37:37.890Z,684
2017-01-13T08:38:37.917Z,684
2017-01-13T08:39:38.336Z,720
2017-01-13T08:40:38.353Z,748
2017-01-13T08:41:37.996Z,764
2017-01-13T08:42:38.018Z,796
2017-01-13T08:43:38.039Z,816
2017-01-13T08:44:38.071Z,820
2017-01-13T08:45:37.701Z,796
2017-01-13T08:46:38.125Z,772
2017-01-13T08:47:38.551Z,664
2017-01-13T08:48:38.187Z,520
2017-01-13T08:49:38.604Z,544
2017-01-13T08:50:39.024Z,496
2017-01-13T08:51:38.261Z,388
2017-01-13T08:52:38.281Z,412
2017-01-13T08:53:37.914Z,372
2017-01-13T08:54:38.731Z,320
2017-01-13T08:55:38.357Z,288
2017-01-13T08:56:38.401Z,356
2017-01-13T08:57:39.204Z,368
2017-01-13T08:58:38.834Z,432
2017-01-13T08:59:39.259Z,576
2017-01-13T09:00:38.511Z,592
2017-01-13T09:01:38.124Z,424
2017-01-13T09:02:38.153Z,400
2017-01-13T09:03:39.370Z,472
2017-01-13T09:04:39.395Z,424
2017-01-13T09:05:38.231Z,460
2017-01-13T09:06:39.048Z,464
2017-01-13T09:07:38.672Z,620
2017-01-13T09:08:39.088Z,688
2017-01-13T09:09:39.526Z,612
2017-01-13T09:10:38.363Z,576
2017-01-13T09:11:39.172Z,480
2017-01-13T09:12:38.809Z,640
2017-01-13T09:13:38.834Z,928
2017-01-13T09:14:38.858Z,928
2017-01-13T09:15:39.286Z,896
2017-01-13T09:16:39.315Z,880
2017-01-13T09:17:39.720Z,884
2017-01-13T09:18:38.964Z,852
2017-01-13T09:19:38.601Z,868
2017-01-13T09:20:39.006Z,956
2017-01-13T09:21:38.649Z,900
2017-01-13T09:22:39.460Z,908
2017-01-13T09:23:39.885Z,1028
2017-01-13T09:24:39.505Z,1072
2017-01-13T09:25:39.137Z,1044
2017-01-13T09:26:38.770Z,976
2017-01-13T09:27:38.790Z,800
2017-01-13T09:28:40.013Z,960
2017-01-13T09:29:38.849Z,800
2017-01-13T09:30:39.278Z,776
2017-01-13T09:31:40.082Z,840
2017-01-13T09:32:40.115Z,928
2017-01-13T09:33:39.347Z,1048
2017-01-13T09:34:39.375Z,1148
2017-01-13T09:35:39.409Z,976
2017-01-13T09:36:39.442Z,928
2017-01-13T09:37:39.458Z,928
2017-01-13T09:38:39.079Z,820
2017-01-13T09:39:39.908Z,748
2017-01-13T09:40:40.324Z,748
2017-01-13T09:41:39.165Z,784
2017-01-13T09:42:39.982Z,836
2017-01-13T09:43:40.010Z,856
2017-01-13T09:44:40.048Z,1008
2017-01-13T09:45:40.060Z,844
2017-01-13T09:46:39.684Z,800
2017-01-13T09:47:40.493Z,796
2017-01-13T09:48:40.518Z,792
2017-01-13T09:49:40.167Z,836
2017-01-13T09:50:39.388Z,796
2017-01-13T09:51:40.209Z,984
2017-01-13T09:52:39.449Z,1044
2017-01-13T09:53:40.295Z,1132
2017-01-13T09:54:40.710Z,992
2017-01-13T09:55:40.344Z,1016
2017-01-13T09:56:40.732Z,888
2017-01-13T09:57:39.577Z,788
2017-01-13T09:58:40.402Z,824
2017-01-13T09:59:40.422Z,920
2017-01-13T10:00:40.447Z,868
2017-01-13T10:01:40.476Z,860
2017-01-13T10:02:39.709Z,1036
2017-01-13T10:03:40.523Z,1048
2017-01-13T10:04:40.951Z,900
2017-01-13T10:05:40.583Z,1008
2017-01-13T10:06:40.203Z,1232
2017-01-13T10:07:40.849Z,1416
2017-01-13T10:08:40.261Z,1512
2017-01-13T10:09:40.290Z,1240
2017-01-13T10:10:40.342Z,1264
2017-01-13T10:11:41.135Z,1512
2017-01-13T10:12:41.156Z,1640
2017-01-13T10:13:40.392Z,1796
2017-01-13T10:14:40.809Z,1888
2017-01-13T10:15:40.441Z,2036
2017-01-13T10:16:40.858Z,1948
2017-01-13T10:17:40.495Z,2188
2017-01-13T10:18:40.911Z,2328
2017-01-13T10:19:40.546Z,2348
2017-01-13T10:20:40.965Z,1772
2017-01-13T10:21:40.588Z,1412
2017-01-13T10:22:41.409Z,1448
2017-01-13T10:23:40.653Z,1744
2017-01-13T10:24:41.063Z,1712
2017-01-13T10:25:40.295Z,1836
2017-01-13T10:26:41.116Z,1840
2017-01-13T10:27:41.144Z,1864
2017-01-13T10:28:41.557Z,1936
2017-01-13T10:29:41.195Z,1676
2017-01-13T10:30:40.826Z,1996
2017-01-13T10:31:41.642Z,1352
2017-01-13T10:32:41.671Z,1684
2017-01-13T10:33:40.900Z,1632
2017-01-13T10:34:40.929Z,1836
2017-01-13T10:35:41.745Z,2196
2017-01-13T10:36:41.383Z,2096
2017-01-13T10:37:41.394Z,1972
2017-01-13T10:38:40.639Z,1908
2017-01-13T10:39:40.668Z,2260
2017-01-13T10:40:40.685Z,2120
2017-01-13T10:41:41.109Z,2316
2017-01-13T10:42:41.531Z,2120
2017-01-13T10:43:41.179Z,1960
2017-01-13T10:44:41.979Z,1740
2017-01-13T10:45:41.612Z,1632
2017-01-13T10:46:42.037Z,1252
2017-01-13T10:47:41.263Z,1268
2017-01-13T10:48:41.290Z,1528
2017-01-13T10:49:42.111Z,1460
2017-01-13T10:50:42.140Z,1400
2017-01-13T10:51:41.765Z,1348
2017-01-13T10:52:41.798Z,1324
2017-01-13T10:53:41.810Z,1424
2017-01-13T10:54:41.443Z,1444
2017-01-13T10:55:41.471Z,1300
2017-01-13T10:56:41.128Z,1288
2017-01-13T10:57:41.928Z,1352
2017-01-13T10:58:41.165Z,1296
2017-01-13T10:59:41.978Z,1032
2017-01-13T11:00:41.999Z,972
2017-01-13T11:01:41.631Z,1212
2017-01-13T11:02:42.048Z,1360
2017-01-13T11:03:42.093Z,1548
2017-01-13T11:04:41.707Z,1656
2017-01-13T11:05:41.733Z,1600
2017-01-13T11:06:41.363Z,1648
2017-01-13T11:07:42.575Z,1264
2017-01-13T11:08:41.808Z,1432
2017-01-13T11:09:42.237Z,1676
2017-01-13T11:10:42.262Z,1656
2017-01-13T11:11:41.890Z,1468
2017-01-13T11:12:41.531Z,1280
2017-01-13T11:13:41.936Z,1200
2017-01-13T11:14:41.977Z,1112
2017-01-13T11:15:42.381Z,800
2017-01-13T11:16:42.806Z,808
2017-01-13T11:17:41.650Z,952
2017-01-13T11:18:42.075Z,1120
2017-01-13T11:19:42.095Z,1324
2017-01-13T11:20:42.117Z,1372
2017-01-13T11:21:41.786Z,972
2017-01-13T11:22:42.174Z,728
2017-01-13T11:23:42.618Z,564
2017-01-13T11:24:42.219Z,504
2017-01-13T11:25:41.856Z,480
2017-01-13T11:26:41.877Z,480
2017-01-13T11:27:43.098Z,580
2017-01-13T11:28:41.937Z,640
2017-01-13T11:29:41.951Z,708
2017-01-13T11:30:42.380Z,544
2017-01-13T11:31:42.809Z,680
2017-01-13T11:32:42.426Z,868
2017-01-13T11:33:42.058Z,1348
2017-01-13T11:34:42.883Z,1224
2017-01-13T11:35:43.312Z,1608
2017-01-13T11:36:42.140Z,1632
2017-01-13T11:37:42.161Z,1476
2017-01-13T11:38:42.973Z,1324
2017-01-13T11:39:43.403Z,1312
2017-01-13T11:40:43.032Z,1520
2017-01-13T11:41:43.063Z,1740
2017-01-13T11:42:42.303Z,1568
2017-01-13T11:43:43.505Z,1396
2017-01-13T11:44:43.138Z,1420
2017-01-13T11:45:42.375Z,1316
2017-01-13T11:46:43.209Z,1136
2017-01-13T11:47:42.812Z,1048
2017-01-13T11:48:43.245Z,1028
2017-01-13T11:49:42.870Z,1140
2017-01-13T11:50:42.895Z,1196
2017-01-13T11:51:42.923Z,1352
2017-01-13T11:52:42.553Z,1620
2017-01-13T11:53:42.585Z,1892
2017-01-13T11:54:43.393Z,2156
2017-01-13T11:55:43.822Z,2376
2017-01-13T11:56:43.451Z,2000
2017-01-13T11:57:43.476Z,1656
2017-01-13T11:58:43.517Z,1644
2017-01-13T11:59:43.129Z,1504
2017-01-13T12:00:43.546Z,1300
2017-01-13T12:01:43.579Z,1032
2017-01-13T12:02:43.599Z,1032
2017-01-13T12:03:44.020Z,1016
2017-01-13T12:04:43.657Z,1212
2017-01-13T12:05:43.681Z,1648
2017-01-13T12:06:43.714Z,2156
2017-01-13T12:07:43.331Z,2092
2017-01-13T12:08:43.760Z,2324
2017-01-13T12:09:43.393Z,2332
2017-01-13T12:10:44.205Z,2528
2017-01-13T12:11:43.834Z,2600
2017-01-13T12:12:43.462Z,2900
2017-01-13T12:13:43.483Z,2904
2017-01-13T12:14:44.312Z,2644
2017-01-13T12:15:43.933Z,2364
2017-01-13T12:16:43.574Z,2172
2017-01-13T12:17:43.599Z,2424
2017-01-13T12:18:44.023Z,2856
2017-01-13T12:19:44.036Z,2968
2017-01-13T12:20:44.080Z,2824
2017-01-13T12:21:44.095Z,3052
2017-01-13T12:22:44.133Z,3360
2017-01-13T12:23:43.358Z,3068
2017-01-13T12:24:44.171Z,2992
2017-01-13T12:25:43.816Z,2648
2017-01-13T12:26:43.828Z,3028
2017-01-13T12:27:43.845Z,2872
2017-01-13T12:28:44.670Z,2740
2017-01-13T12:29:43.511Z,2576
2017-01-13T12:30:44.332Z,2132
2017-01-13T12:31:43.565Z,2356
2017-01-13T12:32:43.590Z,2456
2017-01-13T12:33:44.002Z,2272
2017-01-13T12:34:44.035Z,1884
2017-01-13T12:35:44.487Z,2316
2017-01-13T12:36:44.084Z,2268
2017-01-13T12:37:43.717Z,2216
2017-01-13T12:38:44.534Z,2300
2017-01-13T12:39:44.555Z,2092
2017-01-13T12:40:44.611Z,2036
2017-01-13T12:41:44.612Z,2100
2017-01-13T12:42:45.032Z,2144
2017-01-13T12:43:44.666Z,2164
2017-01-13T12:44:44.322Z,1704
2017-01-13T12:45:43.934Z,1584
2017-01-13T12:46:43.951Z,1504
2017-01-13T12:47:45.176Z,1416
2017-01-13T12:48:44.006Z,1252
2017-01-13T12:49:44.826Z,1408
2017-01-13T12:50:45.244Z,1976
2017-01-13T12:51:44.887Z,2024
2017-01-13T12:52:44.923Z,1744
2017-01-13T12:53:44.525Z,1800
2017-01-13T12:54:44.950Z,1820
2017-01-13T12:55:44.978Z,1800
2017-01-13T12:56:44.611Z,1420
2017-01-13T12:57:45.441Z,1216
2017-01-13T12:58:44.669Z,1252
2017-01-13T12:59:44.289Z,1324
2017-01-13T13:00:44.718Z,1400
2017-01-13T13:01:44.739Z,1824
2017-01-13T13:02:44.363Z,2196
2017-01-13T13:03:44.788Z,2852
2017-01-13T13:04:45.212Z,2916
2017-01-13T13:05:45.633Z,2544
2017-01-13T13:06:44.866Z,2516
2017-01-13T13:07:44.890Z,2016
2017-01-13T13:08:45.327Z,1816
2017-01-13T13:09:44.564Z,1884
2017-01-13T13:10:44.973Z,1816
2017-01-13T13:11:44.597Z,1792
2017-01-13T13:12:45.815Z,1740
2017-01-13T13:13:44.651Z,1732
2017-01-13T13:14:45.467Z,1928
2017-01-13T13:15:44.717Z,1664
2017-01-13T13:16:45.521Z,1692
2017-01-13T13:17:45.154Z,1764
2017-01-13T13:18:44.790Z,1828
2017-01-13T13:19:45.207Z,1796
2017-01-13T13:20:45.624Z,1560
2017-01-13T13:21:45.649Z,1712
2017-01-13T13:22:45.673Z,2072
2017-01-13T13:23:45.306Z,2356
2017-01-13T13:24:45.771Z,2156
2017-01-13T13:25:46.151Z,2020
2017-01-13T13:26:46.176Z,1952
2017-01-13T13:27:45.813Z,1880
2017-01-13T13:28:45.828Z,2324
2017-01-13T13:29:45.858Z,2472
2017-01-13T13:30:45.883Z,2104
2017-01-13T13:31:45.911Z,2152
2017-01-13T13:32:45.144Z,2908
2017-01-13T13:33:45.165Z,3080
2017-01-13T13:34:45.593Z,2844
2017-01-13T13:35:46.411Z,2620
2017-01-13T13:36:46.044Z,2212
2017-01-13T13:37:46.465Z,2204
2017-01-13T13:38:46.484Z,2476
2017-01-13T13:39:45.729Z,2164
2017-01-13T13:40:45.746Z,1944
2017-01-13T13:41:46.171Z,1888
2017-01-13T13:42:46.595Z,1856
2017-01-13T13:43:46.220Z,1372
2017-01-13T13:44:46.253Z,1408
2017-01-13T13:45:45.486Z,1428
2017-01-13T13:46:45.926Z,1448
2017-01-13T13:47:45.530Z,1460
2017-01-13T13:48:46.747Z,1152
2017-01-13T13:49:45.584Z,1244
2017-01-13T13:50:46.008Z,1336
2017-01-13T13:51:46.037Z,1644
2017-01-13T13:52:46.454Z,1816
2017-01-13T13:53:46.074Z,1924
2017-01-13T13:54:46.108Z,1804
2017-01-13T13:55:45.750Z,2100
2017-01-13T13:56:46.163Z,1920
2017-01-13T13:57:45.792Z,2080
2017-01-13T13:58:46.615Z,2108
2017-01-13T13:59:46.638Z,1764
2017-01-13T14:00:47.050Z,1048
2017-01-13T14:01:45.894Z,976
2017-01-13T14:02:46.328Z,788
2017-01-13T14:03:45.948Z,744
2017-01-13T14:04:46.381Z,852
2017-01-13T14:05:46.402Z,968
2017-01-13T14:06:46.822Z,1544
2017-01-13T14:07:46.843Z,1252
2017-01-13T14:08:47.260Z,1056